sensor_id;sensor_type;location;lat;lon;timestamp;temperature;humidity
17495;DHT22;8864;51.970;4.614;2022-09-09T00:00:16;25.20;66.00
17495;DHT22;8864;51.970;4.614;2022-09-09T00:02:49;25.20;65.70
17495;DHT22;8864;51.970;4.614;2022-09-09T00:05:27;25.20;65.70
17495;DHT22;8864;51.970;4.614;2022-09-09T00:07:58;25.30;65.90
17495;DHT22;8864;51.970;4.614;2022-09-09T00:10:29;25.20;65.70
17495;DHT22;8864;51.970;4.614;2022-09-09T00:13:02;25.30;65.80
17495;DHT22;8864;51.970;4.614;2022-09-09T00:15:37;25.20;65.70
17495;DHT22;8864;51.970;4.614;2022-09-09T00:18:14;25.20;65.70
17495;DHT22;8864;51.970;4.614;2022-09-09T00:20:47;25.20;65.70
17495;DHT22;8864;51.970;4.614;2022-09-09T00:23:20;25.20;65.70
17495;DHT22;8864;51.970;4.614;2022-09-09T00:25:54;25.20;65.70
17495;DHT22;8864;51.970;4.614;2022-09-09T00:28:26;25.20;65.70
17495;DHT22;8864;51.970;4.614;2022-09-09T00:30:56;25.20;65.70
17495;DHT22;8864;51.970;4.614;2022-09-09T00:33:26;25.20;65.70
17495;DHT22;8864;51.970;4.614;2022-09-09T00:35:57;25.20;65.70
17495;DHT22;8864;51.970;4.614;2022-09-09T00:38:28;25.20;65.70
17495;DHT22;8864;51.970;4.614;2022-09-09T00:41:03;25.20;65.70
17495;DHT22;8864;51.970;4.614;2022-09-09T00:43:35;25.20;65.70
17495;DHT22;8864;51.970;4.614;2022-09-09T00:49:09;25.20;65.60
17495;DHT22;8864;51.970;4.614;2022-09-09T00:51:48;25.20;65.60
17495;DHT22;8864;51.970;4.614;2022-09-09T00:54:38;25.20;65.60
17495;DHT22;8864;51.970;4.614;2022-09-09T00:57:23;25.20;65.60
17495;DHT22;8864;51.970;4.614;2022-09-09T00:59:59;25.20;65.60
17495;DHT22;8864;51.970;4.614;2022-09-09T01:02:35;25.20;65.60
17495;DHT22;8864;51.970;4.614;2022-09-09T01:05:10;25.20;65.60
17495;DHT22;8864;51.970;4.614;2022-09-09T01:07:40;25.20;65.60
17495;DHT22;8864;51.970;4.614;2022-09-09T01:10:17;25.10;65.50
17495;DHT22;8864;51.970;4.614;2022-09-09T01:12:48;25.20;65.60
17495;DHT22;8864;51.970;4.614;2022-09-09T01:15:19;25.10;65.50
17495;DHT22;8864;51.970;4.614;2022-09-09T01:17:53;25.10;65.50
17495;DHT22;8864;51.970;4.614;2022-09-09T01:20:25;25.10;65.50
17495;DHT22;8864;51.970;4.614;2022-09-09T01:23:13;25.10;65.50
17495;DHT22;8864;51.970;4.614;2022-09-09T01:28:46;25.10;65.50
17495;DHT22;8864;51.970;4.614;2022-09-09T01:31:17;25.10;65.40
17495;DHT22;8864;51.970;4.614;2022-09-09T01:33:44;25.10;65.40
17495;DHT22;8864;51.970;4.614;2022-09-09T01:36:15;25.10;65.40
17495;DHT22;8864;51.970;4.614;2022-09-09T01:38:44;25.10;65.40
17495;DHT22;8864;51.970;4.614;2022-09-09T01:41:11;25.10;65.40
17495;DHT22;8864;51.970;4.614;2022-09-09T01:43:38;25.10;65.40
17495;DHT22;8864;51.970;4.614;2022-09-09T01:46:06;25.10;65.30
17495;DHT22;8864;51.970;4.614;2022-09-09T01:48:34;25.10;65.30
17495;DHT22;8864;51.970;4.614;2022-09-09T01:51:00;25.10;65.30
17495;DHT22;8864;51.970;4.614;2022-09-09T01:53:27;25.10;65.30
17495;DHT22;8864;51.970;4.614;2022-09-09T01:56:05;25.10;65.30
17495;DHT22;8864;51.970;4.614;2022-09-09T01:58:42;25.10;65.20
17495;DHT22;8864;51.970;4.614;2022-09-09T02:01:17;25.10;65.20
17495;DHT22;8864;51.970;4.614;2022-09-09T02:03:52;25.10;65.20
17495;DHT22;8864;51.970;4.614;2022-09-09T02:06:25;25.10;65.20
17495;DHT22;8864;51.970;4.614;2022-09-09T02:08:56;25.10;65.20
17495;DHT22;8864;51.970;4.614;2022-09-09T02:11:25;25.10;65.30
17495;DHT22;8864;51.970;4.614;2022-09-09T02:13:57;25.10;65.20
17495;DHT22;8864;51.970;4.614;2022-09-09T02:16:28;25.10;65.20
17495;DHT22;8864;51.970;4.614;2022-09-09T02:19:00;25.10;66.00
17495;DHT22;8864;51.970;4.614;2022-09-09T02:21:28;25.10;65.20
17495;DHT22;8864;51.970;4.614;2022-09-09T02:23:59;25.10;65.30
17495;DHT22;8864;51.970;4.614;2022-09-09T02:26:31;25.10;65.20
17495;DHT22;8864;51.970;4.614;2022-09-09T02:29:02;25.00;65.10
17495;DHT22;8864;51.970;4.614;2022-09-09T02:31:32;25.10;65.20
17495;DHT22;8864;51.970;4.614;2022-09-09T02:34:01;25.00;65.20
17495;DHT22;8864;51.970;4.614;2022-09-09T02:36:32;25.10;65.20
17495;DHT22;8864;51.970;4.614;2022-09-09T02:39:01;25.10;65.20
17495;DHT22;8864;51.970;4.614;2022-09-09T02:41:31;25.10;65.20
17495;DHT22;8864;51.970;4.614;2022-09-09T02:43:59;25.00;65.10
17495;DHT22;8864;51.970;4.614;2022-09-09T02:46:47;25.00;65.10
17495;DHT22;8864;51.970;4.614;2022-09-09T02:49:21;25.00;65.10
17495;DHT22;8864;51.970;4.614;2022-09-09T02:51:53;25.00;65.00
17495;DHT22;8864;51.970;4.614;2022-09-09T02:54:27;25.00;65.00
17495;DHT22;8864;51.970;4.614;2022-09-09T02:57:00;25.00;65.00
17495;DHT22;8864;51.970;4.614;2022-09-09T02:59:28;25.00;65.00
17495;DHT22;8864;51.970;4.614;2022-09-09T03:01:57;25.00;65.10
17495;DHT22;8864;51.970;4.614;2022-09-09T03:04:24;25.00;65.10
17495;DHT22;8864;51.970;4.614;2022-09-09T03:06:51;25.00;65.00
17495;DHT22;8864;51.970;4.614;2022-09-09T03:09:17;25.00;65.00
17495;DHT22;8864;51.970;4.614;2022-09-09T03:11:44;25.00;65.00
17495;DHT22;8864;51.970;4.614;2022-09-09T03:14:11;25.00;65.00
17495;DHT22;8864;51.970;4.614;2022-09-09T03:16:38;25.00;65.00
17495;DHT22;8864;51.970;4.614;2022-09-09T03:19:06;25.00;65.00
17495;DHT22;8864;51.970;4.614;2022-09-09T03:21:32;25.00;65.00
17495;DHT22;8864;51.970;4.614;2022-09-09T03:23:59;25.00;65.10
17495;DHT22;8864;51.970;4.614;2022-09-09T03:26:28;25.00;65.00
17495;DHT22;8864;51.970;4.614;2022-09-09T03:28:55;25.00;65.00
17495;DHT22;8864;51.970;4.614;2022-09-09T03:31:22;25.00;65.00
17495;DHT22;8864;51.970;4.614;2022-09-09T03:33:49;25.00;65.00
17495;DHT22;8864;51.970;4.614;2022-09-09T03:36:17;25.00;65.00
17495;DHT22;8864;51.970;4.614;2022-09-09T03:38:44;25.00;65.00
17495;DHT22;8864;51.970;4.614;2022-09-09T03:41:11;25.00;65.00
17495;DHT22;8864;51.970;4.614;2022-09-09T03:43:38;25.00;64.90
17495;DHT22;8864;51.970;4.614;2022-09-09T03:46:05;25.00;64.90
17495;DHT22;8864;51.970;4.614;2022-09-09T03:48:32;25.00;64.90
17495;DHT22;8864;51.970;4.614;2022-09-09T03:50:59;25.00;64.90
17495;DHT22;8864;51.970;4.614;2022-09-09T03:53:28;25.00;64.90
17495;DHT22;8864;51.970;4.614;2022-09-09T03:55:56;25.00;64.90
17495;DHT22;8864;51.970;4.614;2022-09-09T03:58:26;25.00;65.20
17495;DHT22;8864;51.970;4.614;2022-09-09T04:00:54;25.00;64.80
17495;DHT22;8864;51.970;4.614;2022-09-09T04:03:21;25.00;64.80
17495;DHT22;8864;51.970;4.614;2022-09-09T04:05:50;25.00;64.80
17495;DHT22;8864;51.970;4.614;2022-09-09T04:08:17;25.00;64.80
17495;DHT22;8864;51.970;4.614;2022-09-09T04:10:46;25.00;65.60
17495;DHT22;8864;51.970;4.614;2022-09-09T04:13:14;25.00;64.80
17495;DHT22;8864;51.970;4.614;2022-09-09T04:15:43;25.00;64.80
17495;DHT22;8864;51.970;4.614;2022-09-09T04:18:11;25.00;64.80
17495;DHT22;8864;51.970;4.614;2022-09-09T04:20:38;25.00;64.80
17495;DHT22;8864;51.970;4.614;2022-09-09T04:23:05;24.90;64.70
17495;DHT22;8864;51.970;4.614;2022-09-09T04:25:32;24.90;64.70
17495;DHT22;8864;51.970;4.614;2022-09-09T04:28:01;25.00;64.70
17495;DHT22;8864;51.970;4.614;2022-09-09T04:30:28;25.00;64.70
17495;DHT22;8864;51.970;4.614;2022-09-09T04:32:55;25.00;64.70
17495;DHT22;8864;51.970;4.614;2022-09-09T04:35:22;24.90;64.60
17495;DHT22;8864;51.970;4.614;2022-09-09T04:37:49;24.90;64.60
17495;DHT22;8864;51.970;4.614;2022-09-09T04:40:16;24.90;64.60
17495;DHT22;8864;51.970;4.614;2022-09-09T04:42:43;24.90;64.60
17495;DHT22;8864;51.970;4.614;2022-09-09T04:45:11;24.90;64.60
17495;DHT22;8864;51.970;4.614;2022-09-09T04:47:39;24.90;64.60
17495;DHT22;8864;51.970;4.614;2022-09-09T04:50:07;24.90;64.60
17495;DHT22;8864;51.970;4.614;2022-09-09T04:52:34;24.90;64.60
17495;DHT22;8864;51.970;4.614;2022-09-09T04:55:01;24.90;64.60
17495;DHT22;8864;51.970;4.614;2022-09-09T04:57:28;24.90;64.60
17495;DHT22;8864;51.970;4.614;2022-09-09T04:59:57;24.90;64.60
17495;DHT22;8864;51.970;4.614;2022-09-09T05:02:25;24.90;64.50
17495;DHT22;8864;51.970;4.614;2022-09-09T05:04:52;24.90;64.50
17495;DHT22;8864;51.970;4.614;2022-09-09T05:07:19;24.90;64.50
17495;DHT22;8864;51.970;4.614;2022-09-09T05:09:46;24.90;64.50
17495;DHT22;8864;51.970;4.614;2022-09-09T05:12:14;24.90;64.50
17495;DHT22;8864;51.970;4.614;2022-09-09T05:14:42;25.00;64.50
17495;DHT22;8864;51.970;4.614;2022-09-09T05:17:09;24.90;64.50
17495;DHT22;8864;51.970;4.614;2022-09-09T05:19:37;24.90;64.50
17495;DHT22;8864;51.970;4.614;2022-09-09T05:22:04;24.90;64.50
17495;DHT22;8864;51.970;4.614;2022-09-09T05:24:30;24.90;64.50
17495;DHT22;8864;51.970;4.614;2022-09-09T05:26:58;24.90;64.50
17495;DHT22;8864;51.970;4.614;2022-09-09T05:29:27;24.90;64.50
17495;DHT22;8864;51.970;4.614;2022-09-09T05:31:54;24.90;64.50
17495;DHT22;8864;51.970;4.614;2022-09-09T05:34:20;24.90;64.40
17495;DHT22;8864;51.970;4.614;2022-09-09T05:36:49;24.90;64.40
17495;DHT22;8864;51.970;4.614;2022-09-09T05:39:17;24.90;64.40
17495;DHT22;8864;51.970;4.614;2022-09-09T05:41:44;24.90;64.50
17495;DHT22;8864;51.970;4.614;2022-09-09T05:44:11;24.90;64.40
17495;DHT22;8864;51.970;4.614;2022-09-09T05:46:39;24.90;64.40
17495;DHT22;8864;51.970;4.614;2022-09-09T05:49:06;24.90;64.50
17495;DHT22;8864;51.970;4.614;2022-09-09T05:51:33;24.90;64.50
17495;DHT22;8864;51.970;4.614;2022-09-09T05:54:02;24.90;64.40
17495;DHT22;8864;51.970;4.614;2022-09-09T05:56:29;24.90;64.40
17495;DHT22;8864;51.970;4.614;2022-09-09T05:58:57;24.90;64.40
17495;DHT22;8864;51.970;4.614;2022-09-09T06:01:26;24.90;64.40
17495;DHT22;8864;51.970;4.614;2022-09-09T06:03:54;24.90;64.40
17495;DHT22;8864;51.970;4.614;2022-09-09T06:06:23;24.90;64.40
17495;DHT22;8864;51.970;4.614;2022-09-09T06:08:52;24.90;64.40
17495;DHT22;8864;51.970;4.614;2022-09-09T06:11:22;24.90;64.30
17495;DHT22;8864;51.970;4.614;2022-09-09T06:13:49;24.90;64.40
17495;DHT22;8864;51.970;4.614;2022-09-09T06:16:20;24.90;64.40
17495;DHT22;8864;51.970;4.614;2022-09-09T06:18:48;24.90;64.30
17495;DHT22;8864;51.970;4.614;2022-09-09T06:21:18;24.80;64.30
17495;DHT22;8864;51.970;4.614;2022-09-09T06:23:45;24.90;64.30
17495;DHT22;8864;51.970;4.614;2022-09-09T06:26:15;24.90;64.30
17495;DHT22;8864;51.970;4.614;2022-09-09T06:28:44;24.90;64.40
17495;DHT22;8864;51.970;4.614;2022-09-09T06:31:12;24.90;64.30
17495;DHT22;8864;51.970;4.614;2022-09-09T06:33:40;24.90;64.30
17495;DHT22;8864;51.970;4.614;2022-09-09T06:36:11;24.90;64.30
17495;DHT22;8864;51.970;4.614;2022-09-09T06:38:38;24.90;64.30
17495;DHT22;8864;51.970;4.614;2022-09-09T06:41:05;24.90;64.40
17495;DHT22;8864;51.970;4.614;2022-09-09T06:43:32;24.90;64.40
17495;DHT22;8864;51.970;4.614;2022-09-09T06:46:03;24.90;65.20
17495;DHT22;8864;51.970;4.614;2022-09-09T06:48:31;24.90;64.30
17495;DHT22;8864;51.970;4.614;2022-09-09T06:51:02;24.90;64.30
17495;DHT22;8864;51.970;4.614;2022-09-09T06:53:29;24.90;64.30
17495;DHT22;8864;51.970;4.614;2022-09-09T06:55:59;24.90;64.30
17495;DHT22;8864;51.970;4.614;2022-09-09T06:58:26;24.90;65.10
17495;DHT22;8864;51.970;4.614;2022-09-09T07:01:02;24.90;64.40
17495;DHT22;8864;51.970;4.614;2022-09-09T07:03:29;24.90;64.40
17495;DHT22;8864;51.970;4.614;2022-09-09T07:05:56;24.90;64.30
17495;DHT22;8864;51.970;4.614;2022-09-09T07:08:23;24.90;64.30
17495;DHT22;8864;51.970;4.614;2022-09-09T07:10:50;24.90;64.40
17495;DHT22;8864;51.970;4.614;2022-09-09T07:13:19;24.90;64.40
17495;DHT22;8864;51.970;4.614;2022-09-09T07:15:46;24.90;64.40
17495;DHT22;8864;51.970;4.614;2022-09-09T07:18:14;24.90;64.40
17495;DHT22;8864;51.970;4.614;2022-09-09T07:20:41;24.90;64.40
17495;DHT22;8864;51.970;4.614;2022-09-09T07:23:08;24.90;64.40
17495;DHT22;8864;51.970;4.614;2022-09-09T07:25:35;24.90;64.30
17495;DHT22;8864;51.970;4.614;2022-09-09T07:28:02;24.90;64.40
17495;DHT22;8864;51.970;4.614;2022-09-09T07:30:29;24.90;64.40
17495;DHT22;8864;51.970;4.614;2022-09-09T07:32:56;24.90;64.40
17495;DHT22;8864;51.970;4.614;2022-09-09T07:35:25;24.90;64.30
17495;DHT22;8864;51.970;4.614;2022-09-09T07:37:52;24.90;64.30
17495;DHT22;8864;51.970;4.614;2022-09-09T07:40:19;24.90;64.30
17495;DHT22;8864;51.970;4.614;2022-09-09T07:42:47;24.90;64.30
17495;DHT22;8864;51.970;4.614;2022-09-09T07:45:14;24.90;64.30
17495;DHT22;8864;51.970;4.614;2022-09-09T07:47:41;24.90;64.30
17495;DHT22;8864;51.970;4.614;2022-09-09T07:50:08;24.90;64.30
17495;DHT22;8864;51.970;4.614;2022-09-09T07:52:36;24.90;64.30
17495;DHT22;8864;51.970;4.614;2022-09-09T07:55:04;24.90;64.30
17495;DHT22;8864;51.970;4.614;2022-09-09T07:57:31;24.90;64.30
17495;DHT22;8864;51.970;4.614;2022-09-09T08:00:02;24.90;64.30
17495;DHT22;8864;51.970;4.614;2022-09-09T08:02:30;24.90;64.30
17495;DHT22;8864;51.970;4.614;2022-09-09T08:04:56;24.90;64.30
17495;DHT22;8864;51.970;4.614;2022-09-09T08:07:23;24.90;64.30
17495;DHT22;8864;51.970;4.614;2022-09-09T08:09:52;24.90;64.30
17495;DHT22;8864;51.970;4.614;2022-09-09T08:12:20;24.90;64.30
17495;DHT22;8864;51.970;4.614;2022-09-09T08:14:46;24.90;64.30
17495;DHT22;8864;51.970;4.614;2022-09-09T08:17:14;24.90;64.30
17495;DHT22;8864;51.970;4.614;2022-09-09T08:19:41;24.90;64.30
17495;DHT22;8864;51.970;4.614;2022-09-09T08:22:07;24.90;64.30
17495;DHT22;8864;51.970;4.614;2022-09-09T08:24:34;24.90;64.30
17495;DHT22;8864;51.970;4.614;2022-09-09T08:27:03;24.90;64.30
17495;DHT22;8864;51.970;4.614;2022-09-09T08:29:30;24.90;64.30
17495;DHT22;8864;51.970;4.614;2022-09-09T08:31:58;24.90;64.30
17495;DHT22;8864;51.970;4.614;2022-09-09T08:34:25;24.90;64.20
17495;DHT22;8864;51.970;4.614;2022-09-09T08:36:54;24.90;64.20
17495;DHT22;8864;51.970;4.614;2022-09-09T08:39:22;24.90;64.20
17495;DHT22;8864;51.970;4.614;2022-09-09T08:42:24;24.90;64.20
17495;DHT22;8864;51.970;4.614;2022-09-09T08:45:23;24.90;64.20
17495;DHT22;8864;51.970;4.614;2022-09-09T08:48:02;24.90;64.20
17495;DHT22;8864;51.970;4.614;2022-09-09T08:50:34;24.90;64.20
17495;DHT22;8864;51.970;4.614;2022-09-09T08:53:04;24.90;64.20
17495;DHT22;8864;51.970;4.614;2022-09-09T08:55:39;24.90;64.10
17495;DHT22;8864;51.970;4.614;2022-09-09T08:58:13;24.90;64.10
17495;DHT22;8864;51.970;4.614;2022-09-09T09:00:50;24.90;64.00
17495;DHT22;8864;51.970;4.614;2022-09-09T09:03:24;24.90;64.00
17495;DHT22;8864;51.970;4.614;2022-09-09T09:06:01;24.80;64.00
17495;DHT22;8864;51.970;4.614;2022-09-09T09:08:37;24.90;64.00
17495;DHT22;8864;51.970;4.614;2022-09-09T09:11:08;24.90;64.00
17495;DHT22;8864;51.970;4.614;2022-09-09T09:13:40;24.80;64.00
17495;DHT22;8864;51.970;4.614;2022-09-09T09:16:17;24.80;64.10
17495;DHT22;8864;51.970;4.614;2022-09-09T09:18:46;24.80;64.00
17495;DHT22;8864;51.970;4.614;2022-09-09T09:21:16;24.90;64.10
17495;DHT22;8864;51.970;4.614;2022-09-09T09:23:53;24.80;64.00
17495;DHT22;8864;51.970;4.614;2022-09-09T09:26:22;24.80;64.00
17495;DHT22;8864;51.970;4.614;2022-09-09T09:28:55;24.80;64.00
17495;DHT22;8864;51.970;4.614;2022-09-09T09:31:23;24.80;64.00
17495;DHT22;8864;51.970;4.614;2022-09-09T09:33:53;24.90;64.10
17495;DHT22;8864;51.970;4.614;2022-09-09T09:36:21;24.80;64.00
17495;DHT22;8864;51.970;4.614;2022-09-09T09:38:55;24.80;64.00
17495;DHT22;8864;51.970;4.614;2022-09-09T09:41:33;24.80;64.00
17495;DHT22;8864;51.970;4.614;2022-09-09T09:44:02;24.80;64.00
17495;DHT22;8864;51.970;4.614;2022-09-09T09:46:30;24.80;64.00
17495;DHT22;8864;51.970;4.614;2022-09-09T09:48:57;24.80;64.80
17495;DHT22;8864;51.970;4.614;2022-09-09T09:51:26;24.80;64.00
17495;DHT22;8864;51.970;4.614;2022-09-09T09:53:53;24.80;64.00
17495;DHT22;8864;51.970;4.614;2022-09-09T09:56:27;24.90;64.00
17495;DHT22;8864;51.970;4.614;2022-09-09T09:58:55;24.80;64.00
17495;DHT22;8864;51.970;4.614;2022-09-09T10:01:24;24.90;64.00
17495;DHT22;8864;51.970;4.614;2022-09-09T10:03:53;24.90;64.00
17495;DHT22;8864;51.970;4.614;2022-09-09T10:06:29;24.90;63.90
17495;DHT22;8864;51.970;4.614;2022-09-09T10:08:56;24.90;63.90
17495;DHT22;8864;51.970;4.614;2022-09-09T10:11:40;24.90;63.90
17495;DHT22;8864;51.970;4.614;2022-09-09T10:14:17;24.90;63.90
17495;DHT22;8864;51.970;4.614;2022-09-09T10:16:59;24.90;63.90
17495;DHT22;8864;51.970;4.614;2022-09-09T10:19:31;24.90;63.90
17495;DHT22;8864;51.970;4.614;2022-09-09T10:22:15;24.90;63.90
17495;DHT22;8864;51.970;4.614;2022-09-09T10:28:10;24.90;63.90
17495;DHT22;8864;51.970;4.614;2022-09-09T10:30:51;24.90;63.90
17495;DHT22;8864;51.970;4.614;2022-09-09T10:33:28;24.90;63.90
17495;DHT22;8864;51.970;4.614;2022-09-09T10:36:02;24.90;63.90
17495;DHT22;8864;51.970;4.614;2022-09-09T10:38:39;24.90;63.90
17495;DHT22;8864;51.970;4.614;2022-09-09T10:41:18;24.90;63.90
17495;DHT22;8864;51.970;4.614;2022-09-09T10:44:15;24.90;63.90
17495;DHT22;8864;51.970;4.614;2022-09-09T10:46:55;24.90;63.90
17495;DHT22;8864;51.970;4.614;2022-09-09T10:49:42;24.90;63.90
17495;DHT22;8864;51.970;4.614;2022-09-09T10:52:20;24.90;63.90
17495;DHT22;8864;51.970;4.614;2022-09-09T10:54:56;24.90;63.90
17495;DHT22;8864;51.970;4.614;2022-09-09T10:57:28;24.90;63.90
17495;DHT22;8864;51.970;4.614;2022-09-09T11:00:00;24.90;63.90
17495;DHT22;8864;51.970;4.614;2022-09-09T11:02:30;24.90;63.90
17495;DHT22;8864;51.970;4.614;2022-09-09T11:05:02;24.90;63.90
17495;DHT22;8864;51.970;4.614;2022-09-09T11:07:34;24.90;63.90
17495;DHT22;8864;51.970;4.614;2022-09-09T11:10:07;24.90;63.90
17495;DHT22;8864;51.970;4.614;2022-09-09T11:12:39;24.90;63.90
17495;DHT22;8864;51.970;4.614;2022-09-09T11:15:15;24.90;63.90
17495;DHT22;8864;51.970;4.614;2022-09-09T11:17:47;24.90;63.90
17495;DHT22;8864;51.970;4.614;2022-09-09T11:20:17;24.90;63.90
17495;DHT22;8864;51.970;4.614;2022-09-09T11:22:48;24.90;63.90
17495;DHT22;8864;51.970;4.614;2022-09-09T11:25:21;24.90;63.80
17495;DHT22;8864;51.970;4.614;2022-09-09T11:28:04;25.00;63.90
17495;DHT22;8864;51.970;4.614;2022-09-09T11:30:42;25.00;63.90
17495;DHT22;8864;51.970;4.614;2022-09-09T11:36:43;25.00;63.80
17495;DHT22;8864;51.970;4.614;2022-09-09T11:39:48;25.00;63.80
17495;DHT22;8864;51.970;4.614;2022-09-09T11:42:22;25.00;63.80
17495;DHT22;8864;51.970;4.614;2022-09-09T11:44:49;25.00;63.90
17495;DHT22;8864;51.970;4.614;2022-09-09T11:47:22;25.00;63.90
17495;DHT22;8864;51.970;4.614;2022-09-09T11:49:50;25.00;63.90
17495;DHT22;8864;51.970;4.614;2022-09-09T11:52:23;25.00;63.90
17495;DHT22;8864;51.970;4.614;2022-09-09T11:54:51;25.00;63.90
17495;DHT22;8864;51.970;4.614;2022-09-09T11:57:25;25.00;63.80
17495;DHT22;8864;51.970;4.614;2022-09-09T11:59:54;25.00;63.90
17495;DHT22;8864;51.970;4.614;2022-09-09T12:02:24;25.00;63.90
17495;DHT22;8864;51.970;4.614;2022-09-09T12:04:57;25.00;63.90
17495;DHT22;8864;51.970;4.614;2022-09-09T12:07:32;25.00;63.90
17495;DHT22;8864;51.970;4.614;2022-09-09T12:10:04;24.90;63.90
17495;DHT22;8864;51.970;4.614;2022-09-09T12:12:35;24.90;63.90
17495;DHT22;8864;51.970;4.614;2022-09-09T12:15:18;24.90;64.00
17495;DHT22;8864;51.970;4.614;2022-09-09T12:17:47;24.90;64.00
17495;DHT22;8864;51.970;4.614;2022-09-09T12:20:17;24.90;64.00
17495;DHT22;8864;51.970;4.614;2022-09-09T12:22:56;24.90;64.00
17495;DHT22;8864;51.970;4.614;2022-09-09T12:25:32;24.90;64.00
17495;DHT22;8864;51.970;4.614;2022-09-09T12:28:05;24.90;64.00
17495;DHT22;8864;51.970;4.614;2022-09-09T12:30:40;24.90;64.00
17495;DHT22;8864;51.970;4.614;2022-09-09T12:33:11;24.90;64.10
17495;DHT22;8864;51.970;4.614;2022-09-09T12:35:39;24.90;64.10
17495;DHT22;8864;51.970;4.614;2022-09-09T12:38:14;24.90;64.10
17495;DHT22;8864;51.970;4.614;2022-09-09T12:40:42;24.90;64.20
17495;DHT22;8864;51.970;4.614;2022-09-09T12:43:19;24.90;64.20
17495;DHT22;8864;51.970;4.614;2022-09-09T12:45:47;24.90;64.20
17495;DHT22;8864;51.970;4.614;2022-09-09T12:48:17;24.90;64.20
17495;DHT22;8864;51.970;4.614;2022-09-09T12:50:47;24.90;64.20
17495;DHT22;8864;51.970;4.614;2022-09-09T12:53:21;24.90;64.20
17495;DHT22;8864;51.970;4.614;2022-09-09T12:55:51;24.90;64.20
17495;DHT22;8864;51.970;4.614;2022-09-09T12:58:19;24.90;64.20
17495;DHT22;8864;51.970;4.614;2022-09-09T13:00:50;24.90;64.20
17495;DHT22;8864;51.970;4.614;2022-09-09T13:03:20;24.90;64.20
17495;DHT22;8864;51.970;4.614;2022-09-09T13:05:47;24.90;64.20
17495;DHT22;8864;51.970;4.614;2022-09-09T13:08:16;24.90;64.30
17495;DHT22;8864;51.970;4.614;2022-09-09T13:10:47;24.90;64.30
17495;DHT22;8864;51.970;4.614;2022-09-09T13:13:21;24.90;64.30
17495;DHT22;8864;51.970;4.614;2022-09-09T13:15:51;24.90;64.30
17495;DHT22;8864;51.970;4.614;2022-09-09T13:18:22;24.90;64.30
17495;DHT22;8864;51.970;4.614;2022-09-09T13:20:50;24.90;64.30
17495;DHT22;8864;51.970;4.614;2022-09-09T13:23:20;24.90;64.30
17495;DHT22;8864;51.970;4.614;2022-09-09T13:25:54;24.90;64.30
17495;DHT22;8864;51.970;4.614;2022-09-09T13:28:23;24.90;64.30
17495;DHT22;8864;51.970;4.614;2022-09-09T13:30:58;24.90;64.40
17495;DHT22;8864;51.970;4.614;2022-09-09T13:33:31;24.90;64.50
17495;DHT22;8864;51.970;4.614;2022-09-09T13:36:00;24.90;64.60
17495;DHT22;8864;51.970;4.614;2022-09-09T13:38:32;24.90;64.40
17495;DHT22;8864;51.970;4.614;2022-09-09T13:41:01;24.90;64.40
17495;DHT22;8864;51.970;4.614;2022-09-09T13:43:31;24.90;64.40
17495;DHT22;8864;51.970;4.614;2022-09-09T13:46:02;24.90;64.50
17495;DHT22;8864;51.970;4.614;2022-09-09T13:48:29;24.90;64.30
17495;DHT22;8864;51.970;4.614;2022-09-09T13:50:59;24.90;64.40
17495;DHT22;8864;51.970;4.614;2022-09-09T13:53:26;24.90;64.40
17495;DHT22;8864;51.970;4.614;2022-09-09T13:55:55;24.90;64.50
17495;DHT22;8864;51.970;4.614;2022-09-09T13:58:22;24.90;64.50
17495;DHT22;8864;51.970;4.614;2022-09-09T14:00:51;25.00;64.50
17495;DHT22;8864;51.970;4.614;2022-09-09T14:03:18;24.90;64.50
17495;DHT22;8864;51.970;4.614;2022-09-09T14:05:45;24.90;64.50
17495;DHT22;8864;51.970;4.614;2022-09-09T14:08:20;24.90;64.50
17495;DHT22;8864;51.970;4.614;2022-09-09T14:10:48;24.90;64.50
17495;DHT22;8864;51.970;4.614;2022-09-09T14:13:16;24.90;64.50
17495;DHT22;8864;51.970;4.614;2022-09-09T14:15:43;24.90;64.50
17495;DHT22;8864;51.970;4.614;2022-09-09T14:18:12;24.90;64.50
17495;DHT22;8864;51.970;4.614;2022-09-09T14:20:40;24.90;64.60
17495;DHT22;8864;51.970;4.614;2022-09-09T14:23:10;24.90;64.50
17495;DHT22;8864;51.970;4.614;2022-09-09T14:25:40;24.90;64.50
17495;DHT22;8864;51.970;4.614;2022-09-09T14:28:09;24.90;64.50
17495;DHT22;8864;51.970;4.614;2022-09-09T14:30:39;24.90;64.50
17495;DHT22;8864;51.970;4.614;2022-09-09T14:33:06;24.90;64.50
17495;DHT22;8864;51.970;4.614;2022-09-09T14:35:34;24.90;64.60
17495;DHT22;8864;51.970;4.614;2022-09-09T14:38:02;24.90;64.50
17495;DHT22;8864;51.970;4.614;2022-09-09T14:40:29;24.80;64.50
17495;DHT22;8864;51.970;4.614;2022-09-09T14:42:56;24.90;64.60
17495;DHT22;8864;51.970;4.614;2022-09-09T14:45:24;24.90;64.60
17495;DHT22;8864;51.970;4.614;2022-09-09T14:47:53;24.90;64.60
17495;DHT22;8864;51.970;4.614;2022-09-09T14:50:20;24.80;64.60
17495;DHT22;8864;51.970;4.614;2022-09-09T14:52:47;24.90;64.70
17495;DHT22;8864;51.970;4.614;2022-09-09T14:55:15;24.90;64.80
17495;DHT22;8864;51.970;4.614;2022-09-09T14:57:41;24.90;64.70
17495;DHT22;8864;51.970;4.614;2022-09-09T15:00:10;24.90;64.60
17495;DHT22;8864;51.970;4.614;2022-09-09T15:02:37;24.90;64.60
17495;DHT22;8864;51.970;4.614;2022-09-09T15:05:06;24.90;64.50
17495;DHT22;8864;51.970;4.614;2022-09-09T15:07:33;24.90;64.50
17495;DHT22;8864;51.970;4.614;2022-09-09T15:10:01;24.90;64.50
17495;DHT22;8864;51.970;4.614;2022-09-09T15:12:28;24.90;64.50
17495;DHT22;8864;51.970;4.614;2022-09-09T15:14:55;25.00;64.50
17495;DHT22;8864;51.970;4.614;2022-09-09T15:17:22;25.00;64.40
17495;DHT22;8864;51.970;4.614;2022-09-09T15:19:51;25.00;64.40
17495;DHT22;8864;51.970;4.614;2022-09-09T15:22:19;25.00;64.40
17495;DHT22;8864;51.970;4.614;2022-09-09T15:24:46;25.00;64.40
17495;DHT22;8864;51.970;4.614;2022-09-09T15:27:13;25.00;64.40
17495;DHT22;8864;51.970;4.614;2022-09-09T15:29:40;25.00;64.40
17495;DHT22;8864;51.970;4.614;2022-09-09T15:32:07;25.00;64.30
17495;DHT22;8864;51.970;4.614;2022-09-09T15:34:34;25.00;64.30
17495;DHT22;8864;51.970;4.614;2022-09-09T15:37:01;25.00;64.30
17495;DHT22;8864;51.970;4.614;2022-09-09T15:39:29;25.00;64.30
17495;DHT22;8864;51.970;4.614;2022-09-09T15:41:56;25.10;64.30
17495;DHT22;8864;51.970;4.614;2022-09-09T15:44:23;25.10;64.30
17495;DHT22;8864;51.970;4.614;2022-09-09T15:46:52;25.10;64.30
17495;DHT22;8864;51.970;4.614;2022-09-09T15:49:21;25.10;64.20
17495;DHT22;8864;51.970;4.614;2022-09-09T15:51:51;25.10;64.30
17495;DHT22;8864;51.970;4.614;2022-09-09T15:54:21;25.10;64.30
17495;DHT22;8864;51.970;4.614;2022-09-09T15:56:53;25.10;64.30
17495;DHT22;8864;51.970;4.614;2022-09-09T15:59:21;25.10;64.30
17495;DHT22;8864;51.970;4.614;2022-09-09T16:01:48;25.10;64.30
17495;DHT22;8864;51.970;4.614;2022-09-09T16:04:17;25.10;64.30
17495;DHT22;8864;51.970;4.614;2022-09-09T16:06:49;25.10;64.30
17495;DHT22;8864;51.970;4.614;2022-09-09T16:09:17;25.10;64.30
17495;DHT22;8864;51.970;4.614;2022-09-09T16:11:43;25.00;64.20
17495;DHT22;8864;51.970;4.614;2022-09-09T16:14:12;25.00;64.30
17495;DHT22;8864;51.970;4.614;2022-09-09T16:16:41;25.00;64.30